Hauptseite
METAR-TAF:

METAR-TAF

Flughäfen :

Fliegerhorst Faßberg

Faßberg, Deutschland

Breite: 52-55N, Länge: 010-11E, Höhe: 75 m

Beobachtung

Neuester Wetterbericht von vor 35 Minuten, um 03:20 UTC
Wind 5 kt aus Süd
Temperatur 18°C
Luftfeuchtigkeit 94%
Luftdruck 1008 hPa
Sichtweite: 8000 m
Aufgelockert bewölkt in der Höhe von 10000 ft
Durchbrochene Bewölkung in der Höhe von 20000 ft

METAR: ETHS 250320Z 17005KT 8000 SCT100 BKN200 18/17 Q1008 BLU+

Zeit: 05:55 (03:55 UTC)


TAF: fehlend

Wetterbeobachtungen und Prognosen von mehr als 4000 Flughäfen (METAR und TAF Bericht).

Die verfügbaren Stationen werden durch gelbe und rote Markierungen auf der Karte dargestellt.

Führen Sie die Maus auf sie, um den Namen der Station zu sehen.

Darauf klicken, um die Beobachtung von Wetterbeobachtungen und Prognosen zu sehen.

Um die Karte zu ändern : klicken Sie auf den grünen Tasten mit einem schwarzen Kreuz Zum Vergrößern, auf den grünen Button mit einem Gedankenstrich zu verkleinern, oder auf die grünen Pfeile für benachbarte Karten.


METAR-TAF: